Meteo Giornale » Osservazioni meteo Stati Uniti (USA) » Portage Portage Glacier
ore: 08:53 - Osservazioni Meteo Portage Portage Glacier
Lat. 60° 47' N Lon. 148° 50' W Alt. 29 metri s.l.m.
2 °C
Foschia
Temp. 24 Ore
-1 °C
14 °C
Nord
0 Km/h
Dew point 2 °C
Umidità 100 %
Visibilità 10 Km
Il sole sorge alle ore 06:52
Il sole tramonta alle ore 20:57
| Data e Ora | Cielo e Fenomeni | T °C | DP °C | Um. % | Pres. hPa | Vis. km | Vento km/h | |
|---|---|---|---|---|---|---|---|---|
| Oggi h: 08:53 | Foschia | 2 | 2 | 100 | 1008 | 10 | N 0 | |
| Oggi h: 08:41 | Nuvoloso | 1 | 1 | 100 | 1008 | 10 | N 0 | |
| Oggi h: 08:30 | Molto Nuvoloso | 1 | 0 | 93 | 1008 | 10 | N 0 | |
| Oggi h: 07:53 | Poco Nuvoloso | 0 | -1 | 92 | 1008 | 10 | N 0 | |
| Oggi h: 07:21 | Molto Nuvoloso | -1 | -1 | 100 | 1008 | 10 | N 0 | |
| Oggi h: 07:05 | Nuvoloso | -1 | -1 | 100 | 1008 | 10 | N 0 | |
| Oggi h: 06:53 | Molto Nuvoloso | -1 | -1 | 100 | 1008 | 10 | N 0 | |
| Oggi h: 06:40 | Molto Nuvoloso | -1 | -1 | 100 | 1008 | 10 | N 0 | |
| Oggi h: 05:53 | Nuvoloso | -1 | -1 | 100 | 1007 | 10 | N 0 | |
| Oggi h: 04:53 | Sereno | 0 | -1 | 92 | 1007 | 10 | N 0 | |
| Oggi h: 03:53 | Sereno | 1 | 1 | 100 | 1007 | 10 | N 0 | |
| Oggi h: 02:53 | Sereno | 1 | 1 | 100 | 1007 | 10 | N 0 | |
| Oggi h: 01:53 | Sereno | 2 | 1 | 93 | 1006 | 10 | N 0 | |
| Oggi h: 00:53 | Sereno | 4 | 3 | 93 | 1006 | 10 | N 0 | |
| Ieri h: 23:53 | Sereno | 4 | 3 | 93 | 1006 | 10 | N 0 | |
| Ieri h: 22:53 | Sereno | 8 | 4 | 75 | 1006 | 10 | N 5.5 | |
| Ieri h: 21:53 | Sereno | 8 | 4 | 75 | 1005 | 10 | N 5.5 | |
| Ieri h: 20:53 | Sereno | 9 | 5 | 75 | 1005 | 10 | N 0 | |
| Ieri h: 19:53 | Sereno | 11 | 4 | 61 | 1005 | 10 | N 7.4 | |
| Ieri h: 18:53 | Sereno | 12 | 5 | 62 | 1005 | 10 | N 7.4 | |
| Ieri h: 17:53 | Sereno | 13 | 5 | 58 | 1005 | 10 | N 9.3 | |
| Ieri h: 16:53 | Sereno | 14 | 4 | 50 | 1005 | 10 | O 14.8 | |
| Ieri h: 15:53 | Sereno | 14 | 4 | 50 | 1005 | 10 | O 13 | |
| Ieri h: 14:53 | Sereno | 14 | 3 | 47 | 1005 | 10 | O/NO 13 | |
| Ieri h: 13:53 | Sereno | 13 | 3 | 50 | 1006 | 10 | O 14.8 | |
| Ieri h: 12:53 | Sereno | 13 | 3 | 50 | 1006 | 10 | N 11.1 | |
| Ieri h: 11:53 | Sereno | 11 | 3 | 57 | 1006 | 10 | N 11.1 | |
| Ieri h: 10:53 | Sereno | 10 | 3 | 61 | 1006 | 10 | O 13 | |
| Ieri h: 09:53 | Sereno | 9 | 3 | 66 | 1007 | 10 | O 9.3 | |



